Weather History for KLKU - February, 2013

Change the Weather History Date:

Friday, February 15, 2013

  Actual Average (KCHO) Record (KCHO)
Temperature  
Mean Temperature 46 °F 38 °F  
Max Temperature 62 °F 49 °F 76 °F (1951)
Min Temperature 30 °F 28 °F 3 °F (1943)
Degree Days  
Heating Degree Days 19 27  
Month to date heating degree days 420  
Since 1 July heating degree days 3080  
Cooling Degree Days 0 0  
Month to date cooling degree days 0  
Year to date cooling degree days 0  
Moisture  
Dew Point 31 °F    
Average Humidity 61    
Maximum Humidity 93    
Minimum Humidity 27    
Precipitation  
Precipitation 0.07 in 0.10 in 0.36 in (2003)
Month to date precipitation 1.31  
Year to date precipitation 4.08  
Sea Level Pressure  
Sea Level Pressure 29.97 in    
Wind  
Wind Speed 5 mph (SW)    
Max Wind Speed 20 mph    
Max Gust Speed 24 mph    
Visibility 10 miles    
Events Rain    
T = Trace of Precipitation, MM = Missing Value Source: NWS Daily Summary

Daily Weather History Graph

Daily Weather History Graph

Search for Another Location

Airport or City:

Trip Planner

Search our weather history database for the weather conditions in past years. The results will help you decide how hot, cold, wet, or windy it might be!

Date:

Astronomy

Feb. 15, 2013 Rise Set
Actual Time 7:01 AM EST 5:50 PM EST
Civil Twilight 6:34 AM EST 6:17 PM EST
Nautical Twilight 6:03 AM EST 6:48 PM EST
Astronomical Twilight 5:33 AM EST 7:19 PM EST
Moon 9:43 AM EST (2/15) 11:43 PM EST (2/15)
Length of Visible Light 11h 43m
Length of Day
10h 49m
Waxing Crescent, 30% of the Moon is Illuminated
Feb 15
Waxing Crescent
Feb 17
First Quarter
Feb 25
Full
Mar 4
Last Quarter
Mar 11
New

Hourly Weather History & Observations

Time (EST) Temp. Windchill Dew Point Humidity Pressure Visibility Wind Dir Wind Speed Gust Speed Precip Events Conditions
12:15 AM 37.4 °F 34.9 °F 28.4 °F 70% 30.00 in 10.0 mi South 3.5 mph - N/A   Clear
12:35 AM 37.4 °F - 28.4 °F 70% 29.99 in 10.0 mi Calm Calm - N/A   Clear
12:55 AM 35.6 °F 32.8 °F 28.4 °F 75% 29.99 in 10.0 mi South 3.5 mph - N/A   Clear
1:15 AM 35.6 °F 31.7 °F 28.4 °F 75% 29.99 in 10.0 mi South 4.6 mph - N/A   Clear
1:35 AM 35.6 °F 32.8 °F 28.4 °F 75% 30.00 in 10.0 mi South 3.5 mph - N/A   Clear
1:55 AM 35.6 °F 32.8 °F 28.4 °F 75% 30.00 in 10.0 mi South 3.5 mph - N/A   Clear
2:15 AM 35.6 °F 31.7 °F 28.4 °F 75% 30.00 in 10.0 mi South 4.6 mph - N/A   Clear
2:55 AM 35.6 °F 32.8 °F 28.4 °F 75% 30.00 in 10.0 mi SSW 3.5 mph - N/A   Clear
3:15 AM 35.6 °F - 28.4 °F 75% 30.00 in 10.0 mi Calm Calm - N/A   Clear
3:35 AM 33.8 °F 30.8 °F 28.4 °F 81% 29.99 in 10.0 mi SW 3.5 mph - N/A   Clear
3:55 AM 33.8 °F 29.6 °F 28.4 °F 81% 29.99 in 10.0 mi SW 4.6 mph - N/A   Clear
4:15 AM 35.6 °F 32.8 °F 28.4 °F 75% 29.99 in 10.0 mi SW 3.5 mph - N/A   Clear
4:35 AM 35.6 °F 31.7 °F 28.4 °F 75% 29.99 in 10.0 mi SW 4.6 mph - N/A   Clear
4:55 AM 35.6 °F 31.7 °F 28.4 °F 75% 29.99 in 10.0 mi WSW 4.6 mph - N/A   Clear
5:15 AM 35.6 °F 32.8 °F 28.4 °F 75% 30.00 in 10.0 mi SW 3.5 mph - N/A   Clear
5:35 AM 35.6 °F 31.7 °F 28.4 °F 75% 30.00 in 10.0 mi SW 4.6 mph - N/A   Clear
5:55 AM 35.6 °F 30.7 °F 28.4 °F 75% 30.00 in 10.0 mi WSW 5.8 mph - N/A   Clear
6:15 AM 35.6 °F 31.7 °F 28.4 °F 75% 30.01 in 10.0 mi WSW 4.6 mph - N/A   Clear
6:35 AM 30.2 °F 26.7 °F 26.6 °F 86% 30.01 in 10.0 mi WSW 3.5 mph - N/A   Clear
6:55 AM 32.0 °F 28.7 °F 26.6 °F 80% 30.01 in 10.0 mi WSW 3.5 mph - N/A   Clear
7:15 AM 30.2 °F 26.7 °F 26.6 °F 86% 30.01 in 10.0 mi WSW 3.5 mph - N/A   Clear
7:35 AM 30.2 °F 26.7 °F 28.4 °F 93% 30.01 in 10.0 mi WSW 3.5 mph - N/A   Clear
7:55 AM 33.8 °F 29.6 °F 28.4 °F 81% 30.02 in 10.0 mi WSW 4.6 mph - N/A   Clear
8:15 AM 37.4 °F - 30.2 °F 75% 30.02 in 10.0 mi Calm Calm - N/A   Clear
8:35 AM 39.2 °F - 30.2 °F 70% 30.02 in 10.0 mi Calm Calm - N/A   Clear
8:55 AM 42.8 °F 41.1 °F 30.2 °F 61% 30.03 in 10.0 mi SW 3.5 mph - N/A   Clear
9:15 AM 44.6 °F 43.1 °F 32.0 °F 61% 30.03 in 10.0 mi SW 3.5 mph - N/A   Clear
9:35 AM 46.4 °F 44.3 °F 30.2 °F 53% 30.03 in 10.0 mi SW 4.6 mph - N/A   Clear
9:55 AM 48.2 °F - 32.0 °F 54% 30.03 in 10.0 mi SSW 5.8 mph - N/A   Clear
10:15 AM 51.8 °F - 33.8 °F 50% 30.03 in 10.0 mi SW 8.1 mph - N/A   Clear
10:35 AM 51.8 °F - 33.8 °F 50% 30.02 in 10.0 mi SSW 8.1 mph - N/A   Clear
10:55 AM 55.4 °F - 33.8 °F 44% 30.01 in 10.0 mi SW 4.6 mph - N/A   Clear
11:15 AM 55.4 °F - 30.2 °F 38% 30.01 in 10.0 mi SW 8.1 mph - N/A   Clear
11:35 AM 57.2 °F - 30.2 °F 36% 30.00 in 10.0 mi SW 5.8 mph - N/A   Clear
11:55 AM 57.2 °F - 30.2 °F 36% 29.99 in 10.0 mi SW 5.8 mph - N/A   Clear
12:15 PM 59.0 °F - 30.2 °F 34% 29.98 in 10.0 mi WSW 5.8 mph - N/A   Clear
12:55 PM 59.0 °F - 30.2 °F 34% 29.95 in 10.0 mi Calm Calm - N/A   Clear
1:15 PM 60.8 °F - 30.2 °F 31% 29.94 in 10.0 mi SW 9.2 mph - N/A   Clear
1:35 PM 59.0 °F - 30.2 °F 34% 29.93 in 10.0 mi West 8.1 mph - N/A   Clear
1:55 PM 62.6 °F - 30.2 °F 30% 29.92 in 10.0 mi WSW 10.4 mph 17.3 mph N/A   Scattered Clouds
2:15 PM 62.6 °F - 28.4 °F 27% 29.91 in 10.0 mi West 9.2 mph - N/A   Clear
2:35 PM 62.6 °F - 30.2 °F 30% 29.91 in 10.0 mi SSW 9.2 mph 20.7 mph N/A   Clear
2:55 PM 60.8 °F - 30.2 °F 31% 29.91 in 10.0 mi SW 8.1 mph 17.3 mph N/A   Clear
3:15 PM 62.6 °F - 30.2 °F 30% 29.90 in 10.0 mi WSW 10.4 mph 16.1 mph N/A   Scattered Clouds
3:35 PM 62.6 °F - 30.2 °F 30% 29.90 in 10.0 mi WSW 5.8 mph - N/A   Scattered Clouds
3:55 PM 60.8 °F - 28.4 °F 29% 29.88 in 10.0 mi WSW 6.9 mph - N/A   Clear
4:15 PM 60.8 °F - 28.4 °F 29% 29.88 in 10.0 mi SSW 9.2 mph 16.1 mph N/A   Clear
4:35 PM 60.8 °F - 28.4 °F 29% 29.88 in 10.0 mi SSW 8.1 mph - N/A   Clear
4:55 PM 60.8 °F - 28.4 °F 29% 29.87 in 10.0 mi SW 8.1 mph - N/A   Clear
5:15 PM 59.0 °F - 28.4 °F 31% 29.87 in 10.0 mi SSW 4.6 mph - N/A   Clear
5:35 PM 57.2 °F - 28.4 °F 33% 29.87 in 10.0 mi South 3.5 mph - N/A   Clear
5:55 PM 55.4 °F - 28.4 °F 36% 29.87 in 10.0 mi Calm Calm - N/A   Clear
6:15 PM 51.8 °F - 30.2 °F 44% 29.87 in 10.0 mi Calm Calm - N/A   Clear
6:35 PM 51.8 °F - 30.2 °F 44% 29.88 in 10.0 mi Calm Calm - N/A   Scattered Clouds
6:55 PM 48.2 °F - 30.2 °F 50% 29.88 in 10.0 mi Calm Calm - N/A   Mostly Cloudy
7:15 PM 46.4 °F - 30.2 °F 53% 29.88 in 10.0 mi Calm Calm - N/A   Mostly Cloudy
7:35 PM 48.2 °F - 35.6 °F 62% 29.91 in 10.0 mi North 19.6 mph 24.2 mph N/A   Overcast
7:55 PM 46.4 °F 41.1 °F 35.6 °F 66% 29.93 in 10.0 mi North 11.5 mph 20.7 mph N/A   Overcast
8:15 PM 44.6 °F 38.8 °F 37.4 °F 76% 29.94 in 10.0 mi North 11.5 mph - N/A Rain Light Rain
8:35 PM 44.6 °F 39.7 °F 37.4 °F 76% 29.96 in 10.0 mi North 9.2 mph - N/A   Light Drizzle
8:55 PM 42.8 °F 37.5 °F 37.4 °F 81% 29.97 in 10.0 mi North 9.2 mph - N/A   Overcast
9:15 PM 42.8 °F 38.0 °F 37.4 °F 81% 29.98 in 10.0 mi North 8.1 mph - 0.01 in Rain Rain
9:35 PM 41.0 °F 35.8 °F 37.4 °F 87% 29.99 in 10.0 mi North 8.1 mph - 0.03 in Rain Light Rain
9:55 PM 41.0 °F 37.1 °F 37.4 °F 87% 29.99 in 10.0 mi North 5.8 mph - 0.04 in   Drizzle
10:15 PM 39.2 °F 35.0 °F 37.4 °F 93% 30.00 in 10.0 mi North 5.8 mph - N/A   Drizzle
10:35 PM 39.2 °F 35.0 °F 37.4 °F 93% 30.00 in 10.0 mi North 5.8 mph - 0.01 in   Drizzle
10:55 PM 39.2 °F 35.0 °F 37.4 °F 93% 29.99 in 7.0 mi ENE 5.8 mph - 0.02 in Rain Light Rain
11:15 PM 37.4 °F 31.4 °F 35.6 °F 93% 29.99 in 10.0 mi NE 8.1 mph - 0.01 in Rain Light Rain
11:35 PM 37.4 °F 32.1 °F 35.6 °F 93% 29.99 in 10.0 mi NE 6.9 mph - 0.01 in   Overcast
11:55 PM 37.4 °F 33.8 °F 35.6 °F 93% 29.99 in 10.0 mi NE 4.6 mph - 0.01 in Rain Light Rain